Time;durP1;ratioP1;P1;durP2;ratioP2;P2;SDS_P1;SDS_P2;PMS_P1;PMS_P2;Temp;Humidity;BMP_temperature;BMP_pressure;BME280_temperature;BME280_humidity;BME280_pressure;Samples;Min_cycle;Max_cycle;Signal;HPM_P1;HPM_P2
2022/03/17 00:03:40;;;;;;;52.97;28.57;;;;;;;0.64;100.00;97593.66;10455221;28;20217;-56
2022/03/17 00:08:40;;;;;;;65.07;30.27;;;;;;;0.77;100.00;97599.91;10455520;28;20207;-57
2022/03/17 00:13:41;;;;;;;64.57;33.67;;;;;;;1.12;100.00;97604.25;10455096;28;20198;-59
2022/03/17 00:18:42;;;;;;;62.40;33.07;;;;;;;1.18;100.00;97599.66;10455431;28;20218;-57
2022/03/17 00:23:42;;;;;;;69.83;31.77;;;;;;;1.23;100.00;97599.41;10454723;28;20757;-58
2022/03/17 00:28:43;;;;;;;57.27;31.93;;;;;;;1.16;100.00;97580.81;10454200;28;20742;-59
2022/03/17 00:33:43;;;;;;;61.20;31.63;;;;;;;1.22;100.00;97577.09;10453078;28;20180;-57
2022/03/17 00:38:43;;;;;;;58.90;32.70;;;;;;;1.44;100.00;97563.94;10453871;28;20787;-57
2022/03/17 00:43:44;;;;;;;57.80;31.03;;;;;;;1.28;100.00;97563.06;10453829;28;20693;-57
2022/03/17 00:48:44;;;;;;;55.53;31.10;;;;;;;1.28;100.00;97563.88;10452730;28;20827;-60
2022/03/17 00:53:46;;;;;;;56.53;30.23;;;;;;;2.55;100.00;97552.03;10453307;28;20561;-57
2022/03/17 00:58:48;;;;;;;56.30;32.73;;;;;;;2.68;100.00;97547.84;10453182;28;20222;-60
2022/03/17 01:03:48;;;;;;;54.10;31.87;;;;;;;2.58;100.00;97539.75;10452388;28;20216;-58
2022/03/17 01:08:49;;;;;;;50.27;29.70;;;;;;;3.39;100.00;97530.78;10452856;28;20212;-59
2022/03/17 01:13:49;;;;;;;50.47;29.87;;;;;;;3.80;100.00;97522.28;10452679;28;20285;-58
2022/03/17 01:18:49;;;;;;;50.33;29.00;;;;;;;4.24;100.00;97503.13;10452339;28;20207;-59
2022/03/17 01:23:50;;;;;;;49.47;29.20;;;;;;;4.66;97.92;97491.84;10452401;28;20272;-58
2022/03/17 01:28:50;;;;;;;33.87;19.23;;;;;;;4.64;96.88;97497.97;10451969;28;20222;-59
2022/03/17 01:33:51;;;;;;;47.03;29.20;;;;;;;4.73;94.41;97495.69;10452005;28;20188;-55
2022/03/17 01:38:51;;;;;;;46.97;28.73;;;;;;;4.73;94.13;97499.13;10452301;28;20247;-53
2022/03/17 01:43:51;;;;;;;47.77;29.47;;;;;;;4.56;94.41;97510.59;10451790;28;20231;-57
2022/03/17 01:48:52;;;;;;;47.77;29.67;;;;;;;4.38;95.84;97527.34;10452133;28;20203;-54
2022/03/17 01:53:52;;;;;;;49.60;29.30;;;;;;;3.94;97.52;97531.81;10452015;28;20210;-55
2022/03/17 01:58:53;;;;;;;49.47;30.60;;;;;;;3.34;100.00;97550.97;10451697;28;20235;-58
2022/03/17 02:03:56;;;;;;;50.40;30.07;;;;;;;2.84;100.00;97545.22;10434122;28;20220;-57
2022/03/17 02:08:56;;;;;;;55.50;32.43;;;;;;;2.60;100.00;97539.66;10451771;28;20582;-56
2022/03/17 02:13:57;;;;;;;62.50;33.77;;;;;;;2.55;100.00;97534.75;10433954;28;20192;-55
2022/03/17 02:18:59;;;;;;;57.33;32.33;;;;;;;2.40;100.00;97539.00;10451630;28;20333;-57
2022/03/17 02:29:18;;;;;;;53.57;30.43;;;;;;;2.17;100.00;97522.19;10450817;28;20709;-51
2022/03/17 02:34:19;;;;;;;56.40;32.93;;;;;;;2.06;100.00;97524.53;10451446;28;20211;-54
2022/03/17 02:39:21;;;;;;;57.93;33.03;;;;;;;1.97;100.00;97507.78;10450857;28;20247;-54
2022/03/17 02:44:21;;;;;;;65.77;35.87;;;;;;;1.95;100.00;97507.03;10451313;28;20196;-52
2022/03/17 02:49:22;;;;;;;65.97;36.43;;;;;;;1.84;100.00;97511.94;10450992;28;20265;-54
2022/03/17 02:54:22;;;;;;;69.67;38.63;;;;;;;1.88;100.00;97509.09;10450811;28;20188;-56
2022/03/17 02:59:23;;;;;;;70.70;38.53;;;;;;;1.80;100.00;97502.69;10457655;28;20831;-54
2022/03/17 03:04:23;;;;;;;70.13;39.27;;;;;;;2.06;100.00;97502.09;10457708;28;20197;-55
2022/03/17 03:09:23;;;;;;;67.53;35.90;;;;;;;2.07;100.00;97502.97;10458079;28;20207;-52
2022/03/17 03:14:24;;;;;;;63.90;36.80;;;;;;;1.92;100.00;97500.28;10457545;28;20187;-53
2022/03/17 03:19:25;;;;;;;66.60;37.40;;;;;;;1.64;100.00;97497.50;10457373;28;20203;-53
2022/03/17 03:24:25;;;;;;;67.20;36.47;;;;;;;1.47;100.00;97490.66;10457290;28;20684;-53
2022/03/17 03:29:26;;;;;;;63.47;34.57;;;;;;;1.36;100.00;97489.47;10456424;28;20215;-53
2022/03/17 03:34:27;;;;;;;68.43;36.73;;;;;;;1.24;100.00;97501.25;10457115;28;20267;-52
2022/03/17 03:39:27;;;;;;;70.90;38.93;;;;;;;1.36;100.00;97494.66;10461384;22;20723;-57
2022/03/17 03:44:28;;;;;;;75.03;38.50;;;;;;;1.29;100.00;97495.00;10415161;28;20197;-59
2022/03/17 03:49:28;;;;;;;76.37;41.47;;;;;;;1.50;100.00;97493.06;10415154;28;20706;-60
2022/03/17 03:54:28;;;;;;;71.67;37.50;;;;;;;2.00;100.00;97497.28;10414779;28;20731;-60
2022/03/17 03:59:29;;;;;;;67.47;38.40;;;;;;;1.99;100.00;97498.22;10414589;28;20212;-57
2022/03/17 04:04:31;;;;;;;75.13;39.30;;;;;;;2.01;100.00;97492.97;10414772;28;20199;-57
2022/03/17 04:09:35;;;;;;;68.10;38.70;;;;;;;2.06;100.00;97501.28;10413999;28;20235;-60
2022/03/17 04:14:36;;;;;;;66.70;36.40;;;;;;;2.20;100.00;97490.19;10414032;28;20216;-54
2022/03/17 04:19:36;;;;;;;63.43;35.20;;;;;;;2.28;100.00;97495.75;10413658;28;20293;-56
2022/03/17 04:24:37;;;;;;;66.37;36.10;;;;;;;2.08;100.00;97492.53;10413744;28;20648;-58
2022/03/17 04:29:38;;;;;;;65.87;37.40;;;;;;;2.09;100.00;97476.09;10412822;28;20207;-59
2022/03/17 04:34:38;;;;;;;57.07;33.10;;;;;;;2.97;100.00;97480.63;10413268;28;20362;-59
2022/03/17 04:39:38;;;;;;;56.53;31.90;;;;;;;2.80;100.00;97482.47;10412958;28;20229;-58
2022/03/17 04:44:39;;;;;;;65.60;32.70;;;;;;;3.20;100.00;97480.09;10412748;28;20207;-55
2022/03/17 04:49:39;;;;;;;61.03;31.37;;;;;;;2.95;100.00;97485.06;10412722;28;20324;-57
2022/03/17 04:54:40;;;;;;;51.87;30.53;;;;;;;3.71;100.00;97464.06;10412579;28;20279;-57
2022/03/17 04:59:40;;;;;;;40.67;24.27;;;;;;;5.12;94.40;97401.31;10411998;28;20243;-56
2022/03/17 05:04:41;;;;;;;41.03;25.47;;;;;;;5.47;88.51;97372.06;10412405;28;20216;-58
2022/03/17 05:09:41;;;;;;;38.40;18.70;;;;;;;5.81;85.01;97364.44;10411839;28;20338;-57
2022/03/17 05:14:41;;;;;;;46.57;24.97;;;;;;;5.75;84.79;97382.28;10412058;28;20184;-58
2022/03/17 05:19:42;;;;;;;45.10;29.10;;;;;;;5.67;85.06;97403.63;10411211;28;20236;-57
2022/03/17 05:24:42;;;;;;;41.00;23.77;;;;;;;5.70;84.87;97393.81;10411484;28;20568;-59
2022/03/17 05:29:43;;;;;;;46.53;23.53;;;;;;;5.69;84.99;97410.34;10411384;28;20685;-56
2022/03/17 05:34:44;;;;;;;34.67;21.50;;;;;;;5.82;84.26;97412.91;10409412;28;20271;-58
2022/03/17 05:39:44;;;;;;;44.67;24.87;;;;;;;5.69;84.62;97432.91;10410609;28;20323;-60
2022/03/17 05:44:45;;;;;;;51.17;30.83;;;;;;;5.75;85.42;97439.47;10411171;28;20204;-59
2022/03/17 05:49:47;;;;;;;50.57;31.07;;;;;;;5.83;85.02;97435.34;10410992;28;20208;-61
2022/03/17 05:54:47;;;;;;;56.43;33.37;;;;;;;5.98;83.24;97417.06;10411188;28;20205;-59
2022/03/17 05:59:47;;;;;;;50.67;30.90;;;;;;;6.05;82.83;97429.50;10410528;28;20224;-60
2022/03/17 06:04:48;;;;;;;53.47;29.87;;;;;;;6.03;83.25;97423.59;10410986;28;20226;-59
2022/03/17 06:09:48;;;;;;;53.20;30.27;;;;;;;6.05;83.01;97411.28;10410545;28;20691;-58
2022/03/17 06:14:48;;;;;;;40.43;22.67;;;;;;;6.17;81.46;97403.53;10410570;28;20284;-60
2022/03/17 06:19:50;;;;;;;37.40;21.93;;;;;;;6.33;80.15;97393.66;10410504;28;20703;-55
2022/03/17 06:24:50;;;;;;;54.83;31.17;;;;;;;6.28;80.97;97407.94;10410152;28;20180;-57
2022/03/17 06:29:51;;;;;;;51.73;31.23;;;;;;;6.33;79.57;97398.88;10412092;28;20220;-56
2022/03/17 06:34:51;;;;;;;60.30;31.83;;;;;;;6.41;79.26;97383.50;10417796;28;20203;-55
2022/03/17 06:39:53;;;;;;;54.53;31.10;;;;;;;6.56;78.27;97378.13;10416798;28;20238;-56
2022/03/17 06:44:54;;;;;;;50.93;29.83;;;;;;;6.57;78.17;97388.41;10416751;28;20231;-55
2022/03/17 06:49:54;;;;;;;59.87;31.13;;;;;;;6.61;76.94;97383.81;10416498;28;20750;-57
2022/03/17 06:54:55;;;;;;;56.53;30.37;;;;;;;6.59;77.55;97386.53;10416751;28;20675;-60
2022/03/17 06:59:55;;;;;;;50.17;30.30;;;;;;;6.69;76.44;97381.47;10416585;28;20217;-58
2022/03/17 07:04:55;;;;;;;51.57;30.20;;;;;;;6.74;75.32;97374.13;10416684;28;20195;-59
2022/03/17 07:09:56;;;;;;;34.50;18.63;;;;;;;6.89;73.81;97343.50;10415967;28;20208;-57
2022/03/17 07:14:57;;;;;;;45.90;27.20;;;;;;;7.01;73.46;97348.69;10416477;28;20609;-58
2022/03/17 07:24:58;;;;;;;46.37;27.43;;;;;;;7.16;72.68;97363.16;10415512;28;20203;-58
2022/03/17 07:29:58;;;;;;;46.00;24.17;;;;;;;7.34;70.80;97342.66;10414628;28;20330;-60
2022/03/17 07:34:58;;;;;;;41.20;23.10;;;;;;;7.44;68.95;97324.50;10414154;28;20560;-60
2022/03/17 07:39:59;;;;;;;42.07;26.13;;;;;;;7.59;70.26;97367.59;10415456;28;20232;-60
2022/03/17 07:44:59;;;;;;;44.27;25.07;;;;;;;7.60;68.50;97356.22;10414875;28;20193;-58
2022/03/17 07:50:25;;;;;;;41.53;24.00;;;;;;;7.76;69.83;97394.13;10410083;28;20243;-60
2022/03/17 07:55:27;;;;;;;24.67;12.90;;;;;;;7.74;66.35;97326.44;10413388;28;20270;-59
2022/03/17 08:00:27;;;;;;;41.77;25.40;;;;;;;7.71;67.19;97359.75;10414657;28;20229;-60
2022/03/17 08:05:28;;;;;;;38.67;24.87;;;;;;;7.93;66.82;97351.88;10414879;28;20184;-56
2022/03/17 08:10:28;;;;;;;30.97;16.23;;;;;;;7.73;66.18;97353.44;10414010;28;20291;-60
2022/03/17 08:15:29;;;;;;;32.20;15.93;;;;;;;7.66;66.11;97347.91;10411883;28;20208;-57
2022/03/17 08:20:30;;;;;;;36.97;21.60;;;;;;;8.04;64.81;97337.97;10413271;28;20224;-59
2022/03/17 08:25:30;;;;;;;35.93;23.03;;;;;;;8.34;63.87;97328.56;10411660;28;20185;-57
2022/03/17 08:30:36;;;;;;;34.90;22.17;;;;;;;8.62;63.29;97326.28;10411436;28;20212;-60
2022/03/17 08:35:36;;;;;;;36.63;23.47;;;;;;;8.92;63.89;97359.44;10413034;28;20284;-60
2022/03/17 08:40:38;;;;;;;42.73;23.90;;;;;;;8.80;62.29;97316.88;10408687;28;20236;-60
2022/03/17 08:50:58;;;;;;;42.80;24.37;;;;;;;8.28;62.80;97324.66;10411570;28;20212;-57
2022/03/17 08:56:01;;;;;;;43.10;24.00;;;;;;;8.21;62.53;97336.56;10409915;28;20200;-58
2022/03/17 09:01:01;;;;;;;35.97;22.53;;;;;;;9.11;60.70;97316.88;10408782;28;20250;-60
2022/03/17 09:06:01;;;;;;;36.67;23.40;;;;;;;8.99;60.41;97312.69;10411667;28;20193;-61
2022/03/17 09:11:02;;;;;;;42.60;26.03;;;;;;;8.59;61.11;97335.22;10404839;28;20212;-62
2022/03/17 09:16:02;;;;;;;39.63;23.80;;;;;;;9.44;60.84;97341.88;10396578;28;20242;-62
2022/03/17 09:21:03;;;;;;;35.43;23.30;;;;;;;10.18;59.58;97322.28;10406107;28;20232;-63
2022/03/17 09:26:03;;;;;;;35.27;22.97;;;;;;;10.49;56.13;97234.84;10405032;28;20200;-60
2022/03/17 09:31:03;;;;;;;40.87;22.83;;;;;;;10.33;56.10;97254.59;10402595;28;20717;-61
2022/03/17 09:36:04;;;;;;;35.17;21.23;;;;;;;10.44;54.63;97229.22;10405501;28;20283;-61
2022/03/17 09:41:23;;;;;;;35.37;21.47;;;;;;;10.66;56.09;97267.34;10451568;23;20227;-60
2022/03/17 09:46:25;;;;;;;37.63;23.50;;;;;;;10.87;53.86;97215.53;10446575;28;20192;-59
2022/03/17 09:51:26;;;;;;;38.50;23.03;;;;;;;10.89;56.06;97286.97;10393652;28;20641;-60
2022/03/17 09:56:27;;;;;;;36.17;22.60;;;;;;;10.65;53.25;97214.09;10383651;28;20184;-62
2022/03/17 10:01:28;;;;;;;35.17;21.17;;;;;;;10.23;53.07;97206.66;10403500;28;20208;-58
2022/03/17 10:06:29;;;;;;;39.87;22.77;;;;;;;10.67;52.78;97216.56;10409306;28;20588;-61
2022/03/17 10:11:31;;;;;;;34.80;20.90;;;;;;;10.13;52.35;97187.50;10409549;28;20558;-62
2022/03/17 10:16:32;;;;;;;32.67;19.93;;;;;;;9.88;53.77;97226.41;10402838;28;20215;-60
2022/03/17 10:21:33;;;;;;;31.03;19.40;;;;;;;10.09;53.70;97259.44;10413324;28;20217;-61
2022/03/17 10:26:35;;;;;;;33.77;18.87;;;;;;;11.04;51.49;97219.16;10411580;28;20583;-62
2022/03/17 10:32:21;;;;;;;28.97;18.70;;;;;;;10.74;53.03;97250.91;10412622;28;20212;-60
2022/03/17 10:37:23;;;;;;;28.63;18.73;;;;;;;10.00;52.28;97212.19;10398802;28;20247;-61
2022/03/17 10:42:28;;;;;;;28.97;16.80;;;;;;;10.87;48.73;97164.88;10413601;28;20239;-61
2022/03/17 10:47:35;;;;;;;26.17;15.63;;;;;;;10.80;48.37;97153.34;10413423;28;20463;-58
2022/03/17 10:52:52;;;;;;;32.17;15.67;;;;;;;10.79;47.95;97144.66;10413315;28;20595;-61
2022/03/17 10:57:58;;;;;;;24.47;14.03;;;;;;;11.21;48.24;97161.66;10412741;28;20184;-60
2022/03/17 11:02:58;;;;;;;22.37;13.50;;;;;;;11.42;47.16;97151.69;10411752;28;20764;-60
2022/03/17 11:07:58;;;;;;;25.37;14.67;;;;;;;11.61;48.05;97178.72;10411678;28;20227;-56
2022/03/17 11:13:04;;;;;;;22.13;14.27;;;;;;;11.66;46.81;97150.22;10412118;28;20268;-60
2022/03/17 11:18:13;;;;;;;28.55;14.90;;;;;;;12.41;45.77;97148.91;10411305;28;20231;-61
2022/03/17 11:23:19;;;;;;;24.17;13.45;;;;;;;12.75;44.77;97143.59;10411046;28;20598;-61
2022/03/17 11:28:34;;;;;;;17.35;11.50;;;;;;;12.47;42.74;97062.38;10411296;28;20294;-60
2022/03/17 11:33:37;;;;;;;16.55;11.02;;;;;;;12.10;44.13;97099.50;10411442;28;20184;-60
2022/03/17 11:39:02;;;;;;;16.48;9.98;;;;;;;11.81;44.74;97099.78;10411713;28;20323;-61
2022/03/17 11:44:03;;;;;;;14.15;8.40;;;;;;;12.04;43.21;97064.19;10413762;28;20213;-60
2022/03/17 11:49:21;;;;;;;10.98;8.75;;;;;;;12.22;42.68;97055.38;10417414;28;20212;-58
2022/03/17 11:54:21;;;;;;;13.02;8.27;;;;;;;12.23;41.99;97036.03;10411159;28;20553;-59
2022/03/17 11:59:27;;;;;;;12.98;7.63;;;;;;;13.66;40.13;97030.56;10410649;28;20223;-59
2022/03/17 12:04:30;;;;;;;10.98;7.75;;;;;;;13.73;39.34;97018.38;10410176;28;20252;-59
2022/03/17 12:09:32;;;;;;;12.90;7.15;;;;;;;14.44;36.98;96977.06;10410805;28;20243;-60
2022/03/17 12:14:47;;;;;;;11.35;7.63;;;;;;;14.06;38.04;96992.75;10408348;28;20211;-60
2022/03/17 12:19:49;;;;;;;17.52;8.77;;;;;;;15.11;37.51;97017.00;10406345;28;20221;-62
2022/03/17 12:24:54;;;;;;;17.40;10.48;;;;;;;14.06;37.69;97007.75;10410118;28;20192;-61
2022/03/17 12:30:03;;;;;;;17.02;9.02;;;;;;;13.47;39.97;97073.88;10407433;28;20303;-59
2022/03/17 12:35:04;;;;;;;18.95;9.13;;;;;;;13.27;38.55;97012.84;10408945;28;20276;-59
2022/03/17 12:40:07;;;;;;;14.88;6.82;;;;;;;13.95;38.71;97037.91;10408005;28;20323;-58
2022/03/17 12:45:11;;;;;;;17.02;9.07;;;;;;;13.92;39.66;97096.19;10406880;28;20196;-60
2022/03/17 12:50:14;;;;;;;19.23;10.18;;;;;;;13.59;39.39;97066.47;10405496;28;20315;-59
2022/03/17 12:55:17;;;;;;;15.20;8.20;;;;;;;13.70;39.78;97079.25;10407567;28;20591;-59
2022/03/17 13:00:23;;;;;;;20.55;9.20;;;;;;;13.17;41.46;97110.34;10408717;28;20224;-62
2022/03/17 13:16:06;;;;;;;18.50;10.68;;;;;;;11.68;43.24;97129.88;10407283;28;20838;-60
2022/03/17 13:21:09;;;;;;;15.30;9.75;;;;;;;11.86;43.58;97155.28;10407368;28;20216;-62
2022/03/17 13:26:10;;;;;;;18.25;9.63;;;;;;;12.04;43.47;97150.03;10406560;28;20203;-59
2022/03/17 13:31:10;;;;;;;22.33;11.83;;;;;;;11.62;44.22;97155.94;10407379;28;20201;-61
2022/03/17 13:36:10;;;;;;;18.27;10.13;;;;;;;11.69;43.74;97170.91;10408049;28;20294;-61
2022/03/17 13:41:19;;;;;;;21.97;11.67;;;;;;;11.26;45.75;97224.97;10409914;28;20256;-58
2022/03/17 13:46:24;;;;;;;29.23;12.60;;;;;;;11.47;45.45;97213.34;10410149;28;20188;-60
2022/03/17 13:51:27;;;;;;;20.47;13.03;;;;;;;11.07;46.71;97252.94;10409220;28;20212;-62
2022/03/17 13:56:27;;;;;;;29.30;15.47;;;;;;;11.10;48.10;97287.72;10410566;28;20193;-60
2022/03/17 14:01:28;;;;;;;23.40;15.33;;;;;;;10.90;49.19;97300.91;10409625;28;20592;-61
2022/03/17 14:06:32;;;;;;;33.00;15.47;;;;;;;11.26;49.74;97342.19;10409057;28;20287;-61
2022/03/17 14:11:34;;;;;;;26.10;16.00;;;;;;;11.11;50.61;97350.50;10409211;28;20219;-62
2022/03/17 14:16:36;;;;;;;30.43;16.97;;;;;;;11.27;49.94;97346.44;10409559;28;20192;-60
2022/03/17 14:24:10;;;;;;;29.70;16.53;;;;;;;11.63;48.58;97336.84;10408673;28;20699;-60
2022/03/17 14:27:00;;;;;;;31.35;17.50;;;;;;;11.86;49.17;97352.19;10409777;28;20189;-61
2022/03/17 14:32:03;;;;;;;30.60;16.95;;;;;;;11.86;49.62;97378.44;10409269;28;20204;-60
2022/03/17 14:37:03;;;;;;;32.03;17.80;;;;;;;11.12;50.17;97359.19;10409073;28;20231;-60
2022/03/17 14:42:04;;;;;;;31.15;18.10;;;;;;;10.96;50.11;97362.41;10408486;28;20263;-61
2022/03/17 14:47:04;;;;;;;30.02;18.48;;;;;;;11.55;50.38;97376.13;10408918;28;20511;-62
2022/03/17 14:52:05;;;;;;;34.22;18.58;;;;;;;11.19;51.11;97396.97;10410899;28;20204;-59
2022/03/17 14:57:05;;;;;;;35.92;18.75;;;;;;;11.31;51.05;97397.63;10412662;28;20647;-61
2022/03/17 15:02:07;;;;;;;37.13;21.35;;;;;;;11.52;52.59;97434.97;10415178;28;20220;-61
2022/03/17 15:07:07;;;;;;;35.72;22.70;;;;;;;12.19;52.47;97454.94;10414364;28;20197;-62
2022/03/17 15:12:08;;;;;;;37.78;22.55;;;;;;;12.06;52.06;97439.56;10414731;28;20200;-60
2022/03/17 15:17:08;;;;;;;37.83;21.23;;;;;;;12.39;51.41;97422.31;10415565;28;20193;-60
2022/03/17 15:22:09;;;;;;;39.33;23.92;;;;;;;11.72;52.99;97454.06;10415262;28;20319;-59
2022/03/17 15:32:28;;;;;;;42.80;25.30;;;;;;;10.46;57.07;97536.34;10415224;28;20217;-60
2022/03/17 15:37:29;;;;;;;44.63;28.10;;;;;;;10.51;58.03;97561.19;10414628;28;20188;-60
2022/03/17 15:42:30;;;;;;;44.97;27.63;;;;;;;10.75;58.24;97569.66;10436390;22;20237;-59
2022/03/17 15:47:30;;;;;;;44.17;26.37;;;;;;;10.78;57.58;97562.34;10414993;28;20834;-61
2022/03/17 15:52:31;;;;;;;42.93;28.13;;;;;;;10.32;61.20;97639.69;10414219;28;20322;-60
2022/03/17 15:57:32;;;;;;;53.20;33.00;;;;;;;9.85;63.25;97675.94;10413482;28;20276;-57
2022/03/17 16:02:32;;;;;;;50.43;32.30;;;;;;;9.09;65.97;97716.09;10413396;28;20282;-57
2022/03/17 16:07:32;;;;;;;50.80;31.10;;;;;;;9.23;66.21;97712.38;10412414;28;20207;-60
2022/03/17 16:17:51;;;;;;;43.40;24.97;;;;;;;9.19;62.94;97643.81;10412037;28;20197;-61
2022/03/17 16:22:52;;;;;;;49.63;26.27;;;;;;;9.25;60.71;97613.75;10413300;28;20217;-62
2022/03/17 16:27:52;;;;;;;44.33;26.17;;;;;;;9.13;61.30;97612.94;10411615;28;20204;-59
2022/03/17 16:32:53;;;;;;;46.17;27.97;;;;;;;9.08;61.67;97647.31;10412710;28;20205;-60
2022/03/17 16:37:53;;;;;;;48.27;27.43;;;;;;;8.99;62.90;97673.34;10412956;28;20188;-59
2022/03/17 16:42:54;;;;;;;46.83;26.93;;;;;;;9.06;63.47;97684.97;10412157;28;20235;-60
2022/03/17 16:47:54;;;;;;;44.93;27.47;;;;;;;8.70;66.56;97757.47;10373107;28;20198;-61
2022/03/17 16:52:55;;;;;;;52.27;29.47;;;;;;;8.25;68.29;97784.31;10398953;28;20300;-59
2022/03/17 16:57:55;;;;;;;61.80;29.53;;;;;;;8.18;71.21;97835.34;10410471;28;20674;-61
2022/03/17 17:02:56;;;;;;;56.93;29.80;;;;;;;8.08;71.45;97845.63;10409473;28;20216;-62
2022/03/17 17:07:56;;;;;;;53.90;29.87;;;;;;;8.17;71.25;97833.66;10409118;28;20192;-61
2022/03/17 17:12:57;;;;;;;51.90;31.63;;;;;;;8.00;70.94;97830.50;10409105;28;20216;-61
2022/03/17 17:18:01;;;;;;;50.50;31.17;;;;;;;7.76;73.92;97874.88;10407786;28;20283;-59
2022/03/17 17:33:43;;;;;;;51.43;31.97;;;;;;;7.15;78.85;97924.31;10409689;28;20213;-59
2022/03/17 17:38:44;;;;;;;50.47;31.77;;;;;;;6.90;81.84;97925.97;10410756;28;20198;-58
2022/03/17 17:43:46;;;;;;;44.37;25.30;;;;;;;7.20;80.58;97908.38;10409472;28;20230;-61
2022/03/17 17:48:46;;;;;;;36.57;24.00;;;;;;;7.29;81.17;97907.75;10408927;28;20203;-58
2022/03/17 17:53:47;;;;;;;41.07;25.27;;;;;;;7.21;81.22;97910.03;10409794;28;20226;-58
2022/03/17 17:58:47;;;;;;;42.53;24.13;;;;;;;7.14;81.91;97913.06;10409645;28;20192;-57
2022/03/17 18:03:47;;;;;;;42.90;25.70;;;;;;;6.97;82.49;97922.03;10409560;28;20228;-59
2022/03/17 18:08:48;;;;;;;39.70;23.20;;;;;;;6.94;83.30;97922.25;10409522;28;20258;-60
2022/03/17 18:13:48;;;;;;;36.67;23.60;;;;;;;6.84;84.65;97925.56;10409873;28;20212;-61
2022/03/17 18:18:49;;;;;;;43.83;25.73;;;;;;;6.63;85.42;97933.91;10410075;28;20196;-58
2022/03/17 18:23:49;;;;;;;45.57;24.43;;;;;;;6.73;84.93;97921.91;10409940;28;20223;-58
2022/03/17 18:28:49;;;;;;;37.70;23.80;;;;;;;6.78;84.02;97932.03;10416217;28;20203;-61
2022/03/17 18:33:51;;;;;;;41.30;25.90;;;;;;;6.50;86.00;97939.06;10417069;28;20248;-56
2022/03/17 18:38:51;;;;;;;39.30;22.87;;;;;;;6.64;84.02;97934.72;10417218;28;20189;-59
2022/03/17 18:43:52;;;;;;;39.60;24.73;;;;;;;6.52;85.71;97946.75;10417053;28;20236;-58
2022/03/17 18:48:53;;;;;;;35.40;23.73;;;;;;;6.48;86.03;97947.88;10417113;28;20210;-59
2022/03/17 18:53:53;;;;;;;39.67;25.03;;;;;;;6.27;87.93;97969.19;10416754;28;20692;-58
2022/03/17 18:58:54;;;;;;;44.30;26.03;;;;;;;6.23;87.16;97958.16;10416911;28;20200;-58
2022/03/17 19:03:54;;;;;;;42.00;25.33;;;;;;;6.35;87.89;97960.88;10416353;28;20283;-59
2022/03/17 19:08:54;;;;;;;41.97;25.23;;;;;;;6.25;87.68;97976.25;10416421;28;20565;-57
2022/03/17 19:13:55;;;;;;;47.93;27.80;;;;;;;6.27;86.97;97979.59;10415596;28;20555;-55
2022/03/17 19:18:56;;;;;;;54.57;27.90;;;;;;;6.29;86.52;97984.69;10397700;28;20231;-56
2022/03/17 19:23:56;;;;;;;45.90;26.80;;;;;;;6.23;87.21;97998.94;10413546;28;20216;-56
2022/03/17 19:28:57;;;;;;;42.80;25.87;;;;;;;6.27;86.31;97999.59;10414368;28;20199;-55
2022/03/17 19:33:57;;;;;;;43.27;28.03;;;;;;;6.14;88.06;98009.91;10415230;28;20211;-59
2022/03/17 19:38:58;;;;;;;46.63;26.97;;;;;;;6.15;88.20;98025.44;10414754;28;20184;-55
2022/03/17 19:43:59;;;;;;;46.37;27.83;;;;;;;6.16;88.64;98034.09;10414528;28;20262;-57
2022/03/17 19:49:00;;;;;;;44.50;27.63;;;;;;;6.04;89.67;98035.69;10414889;28;20284;-60
2022/03/17 19:54:01;;;;;;;55.70;29.00;;;;;;;5.84;90.90;98049.88;10413458;28;20324;-59
2022/03/17 19:59:01;;;;;;;52.13;29.43;;;;;;;5.91;89.57;98053.75;10414760;28;20694;-59
2022/03/17 20:04:02;;;;;;;44.97;26.83;;;;;;;5.90;90.45;98060.72;10414188;28;20710;-57
2022/03/17 20:09:03;;;;;;;46.07;27.93;;;;;;;5.89;90.12;98066.03;10413943;28;20196;-58
2022/03/17 20:14:03;;;;;;;46.70;26.53;;;;;;;5.81;91.27;98063.91;10414323;28;20220;-59
2022/03/17 20:19:04;;;;;;;46.70;26.90;;;;;;;5.70;92.88;98074.13;10413451;28;20188;-59
2022/03/17 20:24:04;;;;;;;41.83;26.43;;;;;;;5.74;93.16;98072.16;10413379;28;20224;-60
2022/03/17 20:29:05;;;;;;;45.40;27.67;;;;;;;5.63;92.44;98081.44;10412032;28;20200;-58
2022/03/17 20:34:05;;;;;;;56.83;27.93;;;;;;;5.64;93.80;98090.91;10414348;28;20209;-61
2022/03/17 20:39:09;;;;;;;45.70;26.27;;;;;;;5.69;93.08;98078.47;10416307;28;20205;-60
2022/03/17 20:44:09;;;;;;;46.13;27.07;;;;;;;5.61;93.28;98090.28;10413328;28;20749;-58
2022/03/17 20:49:10;;;;;;;45.80;27.87;;;;;;;5.40;95.75;98107.97;10412158;28;20203;-57
2022/03/17 20:54:11;;;;;;;45.70;27.93;;;;;;;5.47;95.26;98104.91;10411537;28;20208;-56
2022/03/17 20:59:11;;;;;;;48.97;27.23;;;;;;;5.48;95.07;98116.13;10411632;28;20227;-60
2022/03/17 21:04:11;;;;;;;47.33;28.83;;;;;;;5.40;96.21;98123.56;10410948;28;20236;-55
2022/03/17 21:09:13;;;;;;;45.23;27.70;;;;;;;5.33;96.45;98144.69;10410991;28;20184;-60
2022/03/17 21:14:14;;;;;;;49.93;29.63;;;;;;;5.33;96.82;98143.88;10411460;28;20220;-62
2022/03/17 21:19:14;;;;;;;50.83;28.53;;;;;;;5.47;95.99;98141.28;10411377;28;20677;-60
2022/03/17 21:24:16;;;;;;;46.93;28.50;;;;;;;5.49;96.38;98151.59;10411169;28;20235;-56
2022/03/17 21:29:19;;;;;;;53.30;29.43;;;;;;;5.40;97.45;98165.97;10411231;28;20192;-56
2022/03/17 21:34:21;;;;;;;50.07;29.57;;;;;;;5.48;98.34;98173.31;10411226;28;20185;-58
2022/03/17 21:39:22;;;;;;;54.80;30.40;;;;;;;5.36;99.10;98182.69;10411360;28;20236;-60
2022/03/17 21:44:22;;;;;;;49.43;29.80;;;;;;;5.42;100.00;98182.31;10460917;23;20236;-57
2022/03/17 21:49:23;;;;;;;72.53;41.00;;;;;;;5.39;100.00;98198.09;10452109;28;20204;-55
2022/03/17 21:54:23;;;;;;;78.57;44.83;;;;;;;5.56;100.00;98207.53;10420238;28;20216;-60
2022/03/17 21:59:23;;;;;;;77.43;44.77;;;;;;;5.62;100.00;98206.31;10416364;28;20222;-59
2022/03/17 22:04:26;;;;;;;73.73;42.50;;;;;;;5.50;100.00;98218.28;10423804;28;21056;-57
2022/03/17 22:09:27;;;;;;;72.27;43.53;;;;;;;5.66;100.00;98216.44;10417710;28;20202;-59
2022/03/17 22:14:27;;;;;;;79.70;44.57;;;;;;;5.67;100.00;98214.69;10418900;28;20722;-60
2022/03/17 22:19:28;;;;;;;83.90;44.60;;;;;;;5.70;100.00;98223.16;10418860;28;20189;-59
2022/03/17 22:24:29;;;;;;;74.37;45.40;;;;;;;5.81;100.00;98222.53;10418314;28;20235;-57
2022/03/17 22:29:29;;;;;;;86.47;51.60;;;;;;;5.52;100.00;98225.03;10418162;28;20189;-60
2022/03/17 22:34:30;;;;;;;85.80;48.97;;;;;;;5.75;100.00;98232.47;10418127;28;20686;-58
2022/03/17 22:41:30;;;;;;;86.53;48.60;;;;;;;5.77;100.00;98230.59;10417740;28;20196;-59
2022/03/17 22:44:53;;;;;;;80.40;47.40;;;;;;;5.76;100.00;98234.09;10417494;28;20243;-55
2022/03/17 22:49:53;;;;;;;78.37;46.10;;;;;;;5.86;100.00;98235.25;10417369;28;20659;-56
2022/03/17 22:54:53;;;;;;;79.80;46.50;;;;;;;5.91;100.00;98246.22;10417611;28;20224;-60
2022/03/17 22:59:54;;;;;;;86.27;50.07;;;;;;;5.83;100.00;98245.84;10417034;28;20195;-55
2022/03/17 23:04:54;;;;;;;84.07;47.90;;;;;;;5.90;100.00;98245.41;10417056;28;20224;-58
2022/03/17 23:09:55;;;;;;;80.57;46.83;;;;;;;5.99;100.00;98246.66;10417148;28;20192;-57
2022/03/17 23:14:55;;;;;;;80.40;47.07;;;;;;;6.02;100.00;98259.50;10415179;28;20212;-57
2022/03/17 23:19:56;;;;;;;76.37;45.80;;;;;;;6.02;100.00;98263.88;10416872;28;20192;-58
2022/03/17 23:24:56;;;;;;;78.43;48.77;;;;;;;5.86;100.00;98264.69;10418989;28;20225;-55
2022/03/17 23:29:57;;;;;;;78.60;47.40;;;;;;;5.83;100.00;98271.84;10417369;28;20193;-60
2022/03/17 23:34:57;;;;;;;81.27;47.53;;;;;;;5.81;100.00;98268.50;10415914;28;20211;-58
2022/03/17 23:39:58;;;;;;;71.50;45.10;;;;;;;5.84;100.00;98279.56;10415963;28;20239;-60
2022/03/17 23:45:02;;;;;;;84.07;44.53;;;;;;;5.90;100.00;98275.78;10415597;28;20715;-61
2022/03/17 23:50:05;;;;;;;78.20;44.93;;;;;;;5.84;100.00;98279.56;10415112;28;20567;-58